Time;durP1;ratioP1;P1;durP2;ratioP2;P2;SDS_P1;SDS_P2;PMS_P1;PMS_P2;Temp;Humidity;BMP_temperature;BMP_pressure;BME280_temperature;BME280_humidity;BME280_pressure;Samples;Min_cycle;Max_cycle;Signal;HPM_P1;HPM_P2
2022/02/07 00:01:01;;;;;;;146.33;69.77;;;;;;;;;;5034104;28;20029;-67
2022/02/07 00:04:03;;;;;;;145.47;69.73;;;;;;;;;;5034448;28;20112;-67
2022/02/07 00:06:20;;;;;;;142.50;69.80;;;;;;;;;;5033017;28;20048;-67
2022/02/07 00:08:46;;;;;;;152.77;70.47;;;;;;;;;;5033897;28;20042;-66
2022/02/07 00:11:13;;;;;;;150.47;69.97;;;;;;;;;;5033972;28;20060;-67
2022/02/07 00:13:39;;;;;;;136.73;70.30;;;;;;;;;;5034213;28;20018;-67
2022/02/07 00:16:06;;;;;;;141.47;67.83;;;;;;;;;;5034055;28;20079;-69
2022/02/07 00:18:33;;;;;;;138.57;68.80;;;;;;;;;;5034092;28;20031;-68
2022/02/07 00:20:59;;;;;;;143.20;69.03;;;;;;;;;;5034041;28;20026;-67
2022/02/07 00:23:26;;;;;;;150.73;73.67;;;;;;;;;;5033784;28;20021;-66
2022/02/07 00:25:53;;;;;;;147.87;69.73;;;;;;;;;;5033861;28;20018;-66
2022/02/07 00:28:19;;;;;;;135.10;69.40;;;;;;;;;;5033664;28;20036;-67
2022/02/07 00:30:45;;;;;;;137.67;70.87;;;;;;;;;;5033885;28;20075;-69
2022/02/07 00:33:11;;;;;;;120.80;65.10;;;;;;;;;;5034122;28;20037;-68
2022/02/07 00:35:37;;;;;;;122.27;65.60;;;;;;;;;;5033582;28;20033;-74
2022/02/07 00:38:08;;;;;;;120.30;65.47;;;;;;;;;;5033790;28;20156;-66
2022/02/07 00:48:14;;;;;;;121.77;67.40;;;;;;;;;;5033449;28;20057;-66
2022/02/07 00:50:41;;;;;;;119.13;66.57;;;;;;;;;;5033470;28;20074;-68
2022/02/07 00:53:09;;;;;;;125.73;70.33;;;;;;;;;;5033177;28;20485;-68
2022/02/07 00:55:35;;;;;;;129.27;69.03;;;;;;;;;;5033137;28;20018;-66
2022/02/07 00:58:02;;;;;;;130.57;69.93;;;;;;;;;;5033452;28;20033;-67
2022/02/07 01:00:28;;;;;;;124.10;66.83;;;;;;;;;;5033404;28;20516;-69
2022/02/07 01:02:54;;;;;;;132.80;68.57;;;;;;;;;;5033141;28;20025;-68
2022/02/07 01:05:20;;;;;;;133.17;70.33;;;;;;;;;;5033291;28;20021;-67
2022/02/07 01:07:49;;;;;;;144.17;70.73;;;;;;;;;;5033114;28;20025;-67
2022/02/07 01:10:20;;;;;;;135.43;68.47;;;;;;;;;;5032037;28;20443;-66
2022/02/07 01:13:06;;;;;;;130.97;68.10;;;;;;;;;;5033407;28;20037;-67
2022/02/07 01:20:59;;;;;;;131.43;66.73;;;;;;;;;;5032686;28;20017;-67
2022/02/07 01:23:38;;;;;;;125.03;65.53;;;;;;;;;;5032713;28;20132;-68
2022/02/07 01:55:58;;;;;;;121.77;60.83;;;;;;;;;;5032809;28;20108;-69
2022/02/07 01:58:25;;;;;;;122.20;61.63;;;;;;;;;;5030902;28;20477;-67
2022/02/07 02:00:51;;;;;;;131.67;64.40;;;;;;;;;;5029999;28;20036;-71
2022/02/07 02:03:18;;;;;;;121.70;61.83;;;;;;;;;;5029554;28;20026;-68
2022/02/07 02:05:44;;;;;;;128.07;60.67;;;;;;;;;;5031889;28;20029;-69
2022/02/07 02:08:12;;;;;;;123.73;62.17;;;;;;;;;;5032468;28;20390;-68
2022/02/07 02:10:49;;;;;;;124.07;63.37;;;;;;;;;;5032236;28;20413;-67
2022/02/07 02:13:20;;;;;;;119.93;61.30;;;;;;;;;;5031750;28;20042;-71
2022/02/07 02:21:45;;;;;;;118.13;58.07;;;;;;;;;;5032839;28;20034;-69
2022/02/07 02:37:22;;;;;;;135.83;64.00;;;;;;;;;;5035711;28;20026;-70
2022/02/07 02:45:34;;;;;;;141.27;65.50;;;;;;;;;;5036150;28;20077;-67
2022/02/07 02:48:05;;;;;;;143.50;66.20;;;;;;;;;;5035641;28;20080;-67
2022/02/07 02:50:36;;;;;;;161.50;70.63;;;;;;;;;;5034973;28;20037;-66
2022/02/07 02:53:06;;;;;;;153.90;69.47;;;;;;;;;;5035831;28;20034;-67
2022/02/07 02:55:33;;;;;;;148.93;69.97;;;;;;;;;;5035915;28;20486;-67
2022/02/07 02:58:00;;;;;;;164.63;71.93;;;;;;;;;;5035057;28;20108;-67
2022/02/07 03:00:29;;;;;;;155.07;69.50;;;;;;;;;;5034984;28;20449;-68
2022/02/07 03:02:55;;;;;;;155.93;74.27;;;;;;;;;;5035457;28;20447;-67
2022/02/07 03:05:21;;;;;;;174.83;72.67;;;;;;;;;;5035260;28;20026;-67
2022/02/07 03:07:47;;;;;;;191.37;75.90;;;;;;;;;;5035347;28;20386;-69
2022/02/07 03:10:31;;;;;;;160.73;75.07;;;;;;;;;;5035225;28;20049;-66
2022/02/07 03:13:12;;;;;;;168.17;76.87;;;;;;;;;;5035467;28;20036;-67
2022/02/07 03:18:23;;;;;;;176.80;75.27;;;;;;;;;;5035526;28;20064;-67
2022/02/07 03:20:49;;;;;;;171.03;76.60;;;;;;;;;;5035491;28;20100;-66
2022/02/07 03:23:15;;;;;;;174.23;76.97;;;;;;;;;;5035068;28;20032;-66
2022/02/07 03:25:42;;;;;;;185.40;78.50;;;;;;;;;;5034961;28;20021;-66
2022/02/07 03:28:08;;;;;;;178.97;77.10;;;;;;;;;;5034891;28;20021;-68
2022/02/07 03:30:34;;;;;;;160.43;74.50;;;;;;;;;;5034614;28;20032;-66
2022/02/07 03:33:00;;;;;;;171.63;76.07;;;;;;;;;;5034015;28;20038;-67
2022/02/07 03:35:26;;;;;;;150.70;71.17;;;;;;;;;;5034810;28;20029;-67
2022/02/07 03:37:52;;;;;;;147.93;68.37;;;;;;;;;;5034290;28;20030;-73
2022/02/07 03:40:19;;;;;;;150.30;70.40;;;;;;;;;;5034676;28;20492;-68
2022/02/07 03:42:45;;;;;;;147.53;70.13;;;;;;;;;;5034626;28;20470;-66
2022/02/07 03:45:11;;;;;;;157.07;71.87;;;;;;;;;;5034724;28;20025;-68
2022/02/07 03:47:37;;;;;;;157.87;70.33;;;;;;;;;;5034544;28;20033;-67
2022/02/07 03:50:04;;;;;;;158.43;71.63;;;;;;;;;;5034435;28;20021;-66
2022/02/07 03:52:30;;;;;;;169.20;70.57;;;;;;;;;;5034777;28;20136;-67
2022/02/07 03:54:56;;;;;;;146.17;68.07;;;;;;;;;;5034527;28;20018;-67
2022/02/07 03:57:22;;;;;;;150.50;69.53;;;;;;;;;;5034166;28;20018;-67
2022/02/07 03:59:48;;;;;;;150.57;69.53;;;;;;;;;;5034320;28;20025;-68
2022/02/07 04:02:14;;;;;;;143.40;67.13;;;;;;;;;;5034308;28;20021;-68
2022/02/07 04:04:43;;;;;;;152.80;68.80;;;;;;;;;;5034330;28;20044;-67
2022/02/07 04:07:11;;;;;;;142.23;67.47;;;;;;;;;;5034435;28;20052;-67
2022/02/07 04:09:43;;;;;;;150.13;69.73;;;;;;;;;;5033971;28;20050;-67
2022/02/07 04:12:14;;;;;;;151.03;69.63;;;;;;;;;;5034329;28;20033;-67
2022/02/07 04:14:41;;;;;;;152.83;69.77;;;;;;;;;;5033793;28;20083;-67
2022/02/07 04:17:10;;;;;;;150.00;69.37;;;;;;;;;;5032957;28;20025;-67
2022/02/07 04:19:37;;;;;;;152.87;70.10;;;;;;;;;;5034257;28;20034;-68
2022/02/07 04:22:06;;;;;;;143.10;68.10;;;;;;;;;;5033771;28;20053;-67
2022/02/07 04:24:32;;;;;;;138.50;67.40;;;;;;;;;;5034003;28;20379;-67
2022/02/07 04:26:58;;;;;;;151.57;68.70;;;;;;;;;;5033812;28;20463;-68
2022/02/07 04:29:25;;;;;;;140.00;67.10;;;;;;;;;;5033558;28;20022;-67
2022/02/07 04:31:51;;;;;;;141.27;68.43;;;;;;;;;;5033694;28;20072;-68
2022/02/07 04:34:17;;;;;;;140.40;68.13;;;;;;;;;;5033870;28;20021;-67
2022/02/07 04:36:55;;;;;;;141.93;67.70;;;;;;;;;;5033789;28;20029;-67
2022/02/07 04:39:21;;;;;;;145.40;68.87;;;;;;;;;;5033446;28;20470;-67
2022/02/07 04:41:48;;;;;;;157.43;71.20;;;;;;;;;;5033713;28;20025;-67
2022/02/07 04:44:21;;;;;;;149.37;67.77;;;;;;;;;;5033610;28;20478;-67
2022/02/07 04:54:46;;;;;;;152.43;70.63;;;;;;;;;;5033337;28;20457;-68
2022/02/07 04:57:27;;;;;;;164.97;72.77;;;;;;;;;;5033215;28;20025;-68
2022/02/07 05:15:56;;;;;;;157.43;69.80;;;;;;;;;;5032912;28;20040;-67
2022/02/07 05:18:22;;;;;;;139.97;68.60;;;;;;;;;;5032760;28;20083;-67
2022/02/07 05:20:48;;;;;;;142.80;67.50;;;;;;;;;;5032684;28;20036;-67
2022/02/07 05:23:14;;;;;;;144.73;64.07;;;;;;;;;;5033177;28;20104;-69
2022/02/07 05:25:40;;;;;;;135.63;65.57;;;;;;;;;;5033022;28;20064;-68
2022/02/07 05:28:07;;;;;;;148.73;66.43;;;;;;;;;;5032919;28;20079;-69
2022/02/07 05:30:33;;;;;;;141.60;64.87;;;;;;;;;;5032728;28;20033;-67
2022/02/07 05:32:59;;;;;;;131.00;63.63;;;;;;;;;;5031619;28;20474;-69
2022/02/07 05:35:25;;;;;;;125.47;60.63;;;;;;;;;;5032892;28;20436;-68
2022/02/07 05:37:51;;;;;;;135.43;62.80;;;;;;;;;;5032934;28;20034;-66
2022/02/07 05:40:29;;;;;;;123.93;60.27;;;;;;;;;;5032900;28;20029;-66
2022/02/07 05:42:55;;;;;;;124.63;61.60;;;;;;;;;;5032536;28;20489;-68
2022/02/07 05:45:21;;;;;;;124.80;58.90;;;;;;;;;;5032593;28;20028;-67
2022/02/07 05:47:47;;;;;;;123.07;58.23;;;;;;;;;;5032442;28;20030;-70
2022/02/07 05:50:13;;;;;;;118.80;57.33;;;;;;;;;;5032749;28;20065;-70
2022/02/07 05:52:39;;;;;;;118.77;57.70;;;;;;;;;;5032522;28;20048;-73
2022/02/07 05:55:05;;;;;;;109.60;56.13;;;;;;;;;;5032441;28;20021;-66
2022/02/07 05:57:31;;;;;;;111.00;55.97;;;;;;;;;;5036219;28;20057;-68
2022/02/07 05:59:57;;;;;;;109.87;57.83;;;;;;;;;;5036738;28;20025;-67
2022/02/07 06:02:23;;;;;;;113.10;55.80;;;;;;;;;;5036924;28;20028;-67
2022/02/07 06:04:49;;;;;;;111.00;55.30;;;;;;;;;;5036760;28;20036;-68
2022/02/07 06:07:15;;;;;;;112.90;55.50;;;;;;;;;;5036530;28;20021;-66
2022/02/07 06:09:41;;;;;;;104.93;55.07;;;;;;;;;;5035551;28;20045;-67
2022/02/07 06:12:08;;;;;;;112.17;55.70;;;;;;;;;;5035135;28;20107;-73
2022/02/07 06:14:35;;;;;;;119.00;57.00;;;;;;;;;;5035890;28;20112;-66
2022/02/07 06:17:01;;;;;;;110.27;56.83;;;;;;;;;;5035720;28;20025;-66
2022/02/07 06:19:27;;;;;;;110.00;55.37;;;;;;;;;;5034700;28;20026;-66
2022/02/07 06:21:55;;;;;;;117.73;58.87;;;;;;;;;;5036479;28;20428;-66
2022/02/07 06:24:21;;;;;;;119.90;59.73;;;;;;;;;;5036279;28;20032;-67
2022/02/07 06:26:47;;;;;;;113.73;57.60;;;;;;;;;;5036100;28;20026;-66
2022/02/07 06:29:13;;;;;;;140.67;63.00;;;;;;;;;;5035506;28;20032;-66
2022/02/07 06:31:39;;;;;;;133.60;65.13;;;;;;;;;;5034733;28;20044;-66
2022/02/07 06:34:05;;;;;;;141.03;68.03;;;;;;;;;;5036463;28;20045;-66
2022/02/07 06:36:32;;;;;;;151.93;73.67;;;;;;;;;;5036095;28;20028;-66
2022/02/07 06:38:58;;;;;;;141.50;66.17;;;;;;;;;;5035639;28;20394;-67
2022/02/07 06:41:24;;;;;;;127.77;64.30;;;;;;;;;;5036033;28;20026;-66
2022/02/07 06:43:50;;;;;;;132.07;68.10;;;;;;;;;;5035430;28;20040;-66
2022/02/07 06:46:16;;;;;;;130.27;62.83;;;;;;;;;;5035834;28;20117;-67
2022/02/07 06:48:42;;;;;;;133.97;67.50;;;;;;;;;;5035507;28;20025;-66
2022/02/07 06:51:08;;;;;;;122.13;61.27;;;;;;;;;;5035368;28;20053;-67
2022/02/07 06:53:35;;;;;;;125.13;60.23;;;;;;;;;;5035564;28;20041;-70
2022/02/07 06:56:01;;;;;;;124.47;59.90;;;;;;;;;;5040175;28;20097;-66
2022/02/07 06:58:27;;;;;;;119.33;60.10;;;;;;;;;;5052452;28;20033;-66
2022/02/07 07:00:54;;;;;;;116.63;58.17;;;;;;;;;;5055569;28;20025;-66
2022/02/07 07:03:21;;;;;;;115.47;59.13;;;;;;;;;;5052708;28;20032;-68
2022/02/07 07:05:50;;;;;;;117.53;58.03;;;;;;;;;;5052327;28;20021;-66
2022/02/07 07:08:16;;;;;;;109.97;56.53;;;;;;;;;;5051038;28;20482;-66
2022/02/07 07:10:44;;;;;;;110.63;56.47;;;;;;;;;;5054116;28;20033;-66
2022/02/07 07:13:14;;;;;;;114.60;58.73;;;;;;;;;;5055462;28;20029;-66
2022/02/07 07:15:51;;;;;;;121.87;59.63;;;;;;;;;;5054073;28;20021;-67
2022/02/07 07:18:20;;;;;;;131.93;63.63;;;;;;;;;;5055385;28;20354;-66
2022/02/07 07:20:46;;;;;;;131.83;63.57;;;;;;;;;;5055487;28;20167;-67
2022/02/07 07:23:12;;;;;;;130.33;61.77;;;;;;;;;;5055041;28;20032;-66
2022/02/07 07:25:40;;;;;;;124.93;61.07;;;;;;;;;;5054477;28;20381;-67
2022/02/07 07:28:10;;;;;;;121.73;61.73;;;;;;;;;;5054950;28;20477;-66
2022/02/07 07:30:41;;;;;;;123.93;62.27;;;;;;;;;;5055185;28;20055;-65
2022/02/07 07:33:13;;;;;;;123.57;60.70;;;;;;;;;;5054520;28;20060;-65
2022/02/07 07:35:39;;;;;;;124.70;62.80;;;;;;;;;;5054253;28;20158;-65
2022/02/07 07:38:05;;;;;;;126.23;62.00;;;;;;;;;;5055132;28;20047;-67
2022/02/07 07:40:31;;;;;;;125.37;60.53;;;;;;;;;;5054621;28;20079;-66
2022/02/07 07:42:57;;;;;;;119.73;60.97;;;;;;;;;;5054648;28;20115;-67
2022/02/07 07:45:28;;;;;;;113.60;58.90;;;;;;;;;;5054696;28;20061;-67
2022/02/07 07:47:59;;;;;;;108.80;56.57;;;;;;;;;;5054701;28;20497;-66
2022/02/07 07:50:54;;;;;;;130.80;62.80;;;;;;;;;;5054474;28;20029;-66
2022/02/07 08:03:49;;;;;;;128.33;63.13;;;;;;;;;;5052989;28;20039;-67
2022/02/07 08:06:19;;;;;;;142.93;63.17;;;;;;;;;;5054742;28;20024;-65
2022/02/07 08:11:14;;;;;;;137.47;64.27;;;;;;;;;;5054385;28;20033;-66
2022/02/07 08:13:42;;;;;;;121.47;60.03;;;;;;;;;;5054317;28;20115;-67
2022/02/07 08:16:08;;;;;;;127.60;62.33;;;;;;;;;;5054388;28;20025;-67
2022/02/07 08:18:34;;;;;;;130.27;62.40;;;;;;;;;;5053799;28;20036;-66
2022/02/07 08:21:00;;;;;;;118.20;60.40;;;;;;;;;;5054021;28;20381;-65
2022/02/07 08:23:26;;;;;;;117.20;59.20;;;;;;;;;;5052921;28;20023;-66
2022/02/07 08:25:53;;;;;;;131.83;61.40;;;;;;;;;;5054080;28;20052;-65
2022/02/07 08:28:19;;;;;;;123.20;62.97;;;;;;;;;;5053917;28;20044;-66
2022/02/07 08:30:45;;;;;;;114.30;58.23;;;;;;;;;;5054140;28;20488;-65
2022/02/07 08:33:11;;;;;;;117.43;57.70;;;;;;;;;;5054019;28;20044;-66
2022/02/07 08:35:37;;;;;;;124.20;60.10;;;;;;;;;;5053996;28;20107;-66
2022/02/07 08:38:03;;;;;;;137.70;60.33;;;;;;;;;;5053904;28;20108;-66
2022/02/07 08:40:30;;;;;;;117.10;58.00;;;;;;;;;;5054058;28;20025;-65
2022/02/07 08:42:56;;;;;;;119.77;60.17;;;;;;;;;;5053919;28;20024;-66
2022/02/07 08:45:23;;;;;;;116.70;60.53;;;;;;;;;;5053974;28;20032;-67
2022/02/07 08:47:49;;;;;;;120.67;59.63;;;;;;;;;;5053741;28;20013;-65
2022/02/07 08:50:15;;;;;;;116.67;59.93;;;;;;;;;;5053355;28;20056;-66
2022/02/07 08:52:46;;;;;;;114.67;59.67;;;;;;;;;;5053361;28;20110;-67
2022/02/07 08:55:21;;;;;;;109.33;57.13;;;;;;;;;;5053682;28;20090;-66
2022/02/07 08:57:53;;;;;;;113.23;57.03;;;;;;;;;;5053591;28;20484;-65
2022/02/07 09:00:24;;;;;;;97.00;51.93;;;;;;;;;;5053372;28;20025;-67
2022/02/07 09:03:11;;;;;;;87.30;49.63;;;;;;;;;;5053401;28;20103;-66
2022/02/07 09:05:49;;;;;;;74.67;43.63;;;;;;;;;;5053174;28;20375;-66
2022/02/07 09:10:45;;;;;;;58.67;34.10;;;;;;;;;;5053522;28;20037;-67
2022/02/07 09:13:11;;;;;;;49.40;28.10;;;;;;;;;;5053392;28;20546;-68
2022/02/07 09:18:13;;;;;;;28.83;17.43;;;;;;;;;;5053408;28;20033;-66
2022/02/07 09:20:42;;;;;;;40.13;21.80;;;;;;;;;;5053398;28;20109;-68
2022/02/07 09:23:09;;;;;;;26.93;16.87;;;;;;;;;;5053125;28;20087;-66
2022/02/07 09:25:35;;;;;;;17.93;11.27;;;;;;;;;;5053027;28;20048;-65
2022/02/07 09:28:01;;;;;;;18.90;11.90;;;;;;;;;;5053263;28;20021;-67
2022/02/07 09:30:27;;;;;;;16.80;10.93;;;;;;;;;;5052335;28;20021;-67
2022/02/07 09:32:54;;;;;;;18.30;11.87;;;;;;;;;;5053015;28;20033;-66
2022/02/07 09:35:20;;;;;;;12.23;6.77;;;;;;;;;;5053198;28;20032;-66
2022/02/07 09:37:46;;;;;;;5.50;3.77;;;;;;;;;;5053027;28;20017;-66
2022/02/07 09:40:14;;;;;;;3.50;2.10;;;;;;;;;;5052782;28;20068;-66
2022/02/07 09:42:41;;;;;;;2.47;1.37;;;;;;;;;;5052970;28;20029;-65
2022/02/07 09:45:11;;;;;;;1.87;1.00;;;;;;;;;;5053083;28;20044;-66
2022/02/07 09:47:40;;;;;;;0.40;0.20;;;;;;;;;;5052931;28;20029;-66
2022/02/07 09:50:07;;;;;;;0.30;0.20;;;;;;;;;;5051961;28;20040;-66
2022/02/07 09:52:34;;;;;;;0.40;0.20;;;;;;;;;;5053055;28;20033;-65
2022/02/07 09:55:00;;;;;;;0.87;0.33;;;;;;;;;;5052852;28;20025;-66
2022/02/07 09:57:27;;;;;;;4.10;0.50;;;;;;;;;;5053007;28;20025;-67
2022/02/07 09:59:54;;;;;;;5.83;0.30;;;;;;;;;;5052907;28;20033;-66
2022/02/07 10:02:33;;;;;;;2.13;0.20;;;;;;;;;;5053067;28;20025;-66
2022/02/07 10:05:04;;;;;;;2.30;0.20;;;;;;;;;;5052911;28;20027;-68
2022/02/07 10:07:53;;;;;;;0.83;0.30;;;;;;;;;;5052945;28;20079;-66
2022/02/07 10:13:15;;;;;;;0.47;0.10;;;;;;;;;;5052653;28;20124;-65
2022/02/07 10:39:56;;;;;;;2.58;1.05;;;;;;;;;;5052487;28;20079;-67
2022/02/07 10:44:59;;;;;;;3.67;1.00;;;;;;;;;;5056154;28;20036;-66
2022/02/07 10:47:36;;;;;;;0.85;0.60;;;;;;;;;;5056133;28;20040;-66
2022/02/07 10:50:02;;;;;;;1.80;1.10;;;;;;;;;;5056082;28;20032;-67
2022/02/07 10:52:29;;;;;;;1.67;1.00;;;;;;;;;;5056040;28;20500;-66
2022/02/07 10:54:55;;;;;;;2.72;1.30;;;;;;;;;;5053850;28;20377;-66
2022/02/07 10:57:23;;;;;;;0.90;0.57;;;;;;;;;;5055860;28;20029;-66
2022/02/07 10:59:49;;;;;;;0.57;0.30;;;;;;;;;;5055843;28;20013;-65
2022/02/07 11:05:06;;;;;;;2.38;0.60;;;;;;;;;;5055978;28;20079;-67
2022/02/07 11:07:32;;;;;;;;;;;;;;;;;;5056166;28;20025;-66
2022/02/07 11:15:30;;;;;;;5.57;0.40;;;;;;;;;;5054601;28;20440;-69
2022/02/07 11:23:20;;;;;;;0.77;0.22;;;;;;;;;;5053703;28;20037;-66
2022/02/07 11:28:21;;;;;;;0.50;0.20;;;;;;;;;;5054809;28;20477;-66
2022/02/07 11:30:49;;;;;;;0.30;0.20;;;;;;;;;;5054881;28;20028;-66
2022/02/07 11:33:34;;;;;;;3.70;0.30;;;;;;;;;;5054390;28;20091;-67
2022/02/07 11:36:02;;;;;;;0.43;0.10;;;;;;;;;;5053998;28;20447;-67
2022/02/07 11:38:28;;;;;;;0.10;0.10;;;;;;;;;;5053919;28;20055;-66
2022/02/07 11:40:59;;;;;;;0.55;0.10;;;;;;;;;;5054443;28;20017;-66
2022/02/07 11:43:31;;;;;;;5.47;0.38;;;;;;;;;;5054774;28;20021;-67
2022/02/07 11:46:03;;;;;;;0.30;0.10;;;;;;;;;;5053457;28;20017;-68
2022/02/07 11:48:29;;;;;;;0.30;0.13;;;;;;;;;;5054479;28;20032;-67
2022/02/07 11:50:58;;;;;;;5.03;0.55;;;;;;;;;;5053907;28;20025;-67
2022/02/07 11:53:30;;;;;;;0.00;0.00;;;;;;;;;;5052323;28;20041;-67
2022/02/07 11:56:07;;;;;;;0.22;0.10;;;;;;;;;;5055045;28;20025;-67
2022/02/07 11:58:44;;;;;;;0.10;0.10;;;;;;;;;;5054337;28;20090;-67
2022/02/07 12:01:12;;;;;;;2.92;0.20;;;;;;;;;;5054490;28;20021;-67
2022/02/07 12:03:41;;;;;;;2.42;0.28;;;;;;;;;;5054468;28;20025;-67
2022/02/07 12:06:07;;;;;;;0.00;0.00;;;;;;;;;;5054458;28;20024;-67
2022/02/07 12:08:37;;;;;;;2.85;0.20;;;;;;;;;;5053928;28;20028;-67
2022/02/07 12:11:03;;;;;;;0.50;0.10;;;;;;;;;;5054036;28;20036;-67
2022/02/07 12:13:30;;;;;;;0.30;0.10;;;;;;;;;;5053379;28;20037;-68
2022/02/07 12:15:57;;;;;;;1.42;1.08;;;;;;;;;;5052755;28;20025;-68
2022/02/07 12:18:25;;;;;;;0.45;0.15;;;;;;;;;;5052180;28;20042;-67
2022/02/07 12:20:53;;;;;;;2.83;0.20;;;;;;;;;;5051561;28;20057;-67
2022/02/07 12:23:20;;;;;;;2.40;0.95;;;;;;;;;;5051195;28;20021;-68
2022/02/07 12:25:57;;;;;;;0.63;0.15;;;;;;;;;;5053589;28;20032;-68
2022/02/07 12:28:49;;;;;;;0.35;0.20;;;;;;;;;;5053796;28;20017;-68
2022/02/07 12:31:19;;;;;;;0.10;0.10;;;;;;;;;;5052581;28;20232;-68
2022/02/07 12:33:46;;;;;;;2.03;1.52;;;;;;;;;;5053384;28;20031;-67
2022/02/07 12:36:12;;;;;;;7.65;3.80;;;;;;;;;;5054312;28;20359;-67
2022/02/07 12:38:40;;;;;;;2.05;0.20;;;;;;;;;;5053472;28;20108;-65
2022/02/07 12:41:11;;;;;;;1.23;0.20;;;;;;;;;;5053565;28;20469;-66
2022/02/07 12:43:38;;;;;;;0.10;0.10;;;;;;;;;;5053625;28;20089;-66
2022/02/07 12:46:06;;;;;;;3.20;0.10;;;;;;;;;;5052326;28;20139;-67
2022/02/07 12:48:35;;;;;;;0.65;0.30;;;;;;;;;;5053277;28;20422;-66
2022/02/07 12:51:01;;;;;;;0.10;0.10;;;;;;;;;;5053560;28;20017;-66
2022/02/07 12:53:28;;;;;;;0.17;0.10;;;;;;;;;;5053699;28;20170;-66
2022/02/07 12:55:56;;;;;;;0.82;0.13;;;;;;;;;;5053550;28;20028;-66
2022/02/07 12:58:33;;;;;;;0.40;0.10;;;;;;;;;;5053387;28;20087;-66
2022/02/07 13:01:15;;;;;;;0.80;0.10;;;;;;;;;;5053114;28;20083;-66
2022/02/07 13:03:47;;;;;;;0.22;0.10;;;;;;;;;;5052738;28;20021;-66
2022/02/07 13:06:14;;;;;;;0.30;0.15;;;;;;;;;;5052082;28;20489;-66
2022/02/07 13:08:43;;;;;;;0.40;0.10;;;;;;;;;;5052902;28;20486;-67
2022/02/07 13:11:14;;;;;;;0.73;0.20;;;;;;;;;;5053014;28;20063;-66
2022/02/07 13:13:48;;;;;;;2.42;0.20;;;;;;;;;;5053082;28;20035;-66
2022/02/07 13:16:15;;;;;;;0.63;0.17;;;;;;;;;;5052977;28;20488;-66
2022/02/07 13:18:42;;;;;;;2.92;0.20;;;;;;;;;;5052778;28;20028;-66
2022/02/07 13:21:12;;;;;;;0.50;0.30;;;;;;;;;;5053233;28;20020;-66
2022/02/07 13:23:40;;;;;;;3.03;0.57;;;;;;;;;;5051563;28;20071;-66
2022/02/07 13:26:09;;;;;;;1.50;0.35;;;;;;;;;;5050292;28;20032;-66
2022/02/07 13:28:39;;;;;;;1.02;0.30;;;;;;;;;;5051062;28;20033;-66
2022/02/07 13:31:06;;;;;;;0.40;0.20;;;;;;;;;;5053189;28;20068;-66
2022/02/07 13:33:32;;;;;;;0.88;0.20;;;;;;;;;;5052890;28;20049;-66
2022/02/07 13:35:59;;;;;;;0.30;0.20;;;;;;;;;;5052904;28;20025;-66
2022/02/07 13:38:26;;;;;;;0.28;0.20;;;;;;;;;;5052681;28;20052;-67
2022/02/07 13:40:53;;;;;;;0.38;0.10;;;;;;;;;;5053063;28;20501;-67
2022/02/07 13:43:23;;;;;;;0.17;0.10;;;;;;;;;;5052696;28;20045;-66
2022/02/07 13:45:51;;;;;;;0.30;0.20;;;;;;;;;;5051955;28;20024;-66
2022/02/07 13:48:18;;;;;;;2.53;0.38;;;;;;;;;;5052375;28;20036;-66
2022/02/07 13:50:46;;;;;;;0.57;0.15;;;;;;;;;;5051758;28;20040;-67
2022/02/07 13:53:13;;;;;;;1.45;0.50;;;;;;;;;;5052736;28;20036;-66
2022/02/07 13:55:40;;;;;;;2.88;0.40;;;;;;;;;;5052215;28;20091;-66
2022/02/07 13:58:08;;;;;;;3.45;0.20;;;;;;;;;;5052920;28;20393;-65
2022/02/07 14:00:34;;;;;;;2.38;0.47;;;;;;;;;;5052562;28;20021;-67
2022/02/07 14:03:32;;;;;;;0.45;0.20;;;;;;;;;;5052079;28;20033;-66
2022/02/07 14:06:00;;;;;;;3.40;0.40;;;;;;;;;;5050461;28;20129;-66
2022/02/07 14:08:32;;;;;;;4.10;0.38;;;;;;;;;;5049541;28;20389;-70
2022/02/07 14:10:59;;;;;;;0.63;0.20;;;;;;;;;;5047604;28;20452;-65
2022/02/07 14:13:25;;;;;;;1.17;0.20;;;;;;;;;;5048338;28;20510;-65
2022/02/07 14:15:51;;;;;;;0.55;0.38;;;;;;;;;;5048706;28;20021;-64
2022/02/07 14:18:18;;;;;;;2.40;0.40;;;;;;;;;;5055209;28;20025;-65
2022/02/07 14:20:45;;;;;;;0.82;0.50;;;;;;;;;;5055441;28;20028;-64
2022/02/07 14:23:12;;;;;;;0.45;0.20;;;;;;;;;;5055613;28;20036;-67
2022/02/07 14:25:39;;;;;;;2.28;0.38;;;;;;;;;;5054564;28;20060;-65
2022/02/07 14:28:06;;;;;;;2.45;0.30;;;;;;;;;;5054710;28;20029;-65
2022/02/07 14:30:32;;;;;;;1.45;0.30;;;;;;;;;;5055002;28;20025;-66
2022/02/07 14:32:59;;;;;;;0.38;0.20;;;;;;;;;;5055275;28;20029;-65
2022/02/07 14:35:26;;;;;;;1.75;0.30;;;;;;;;;;5055760;28;20059;-65
2022/02/07 14:37:53;;;;;;;1.48;0.30;;;;;;;;;;5055923;28;20036;-65
2022/02/07 14:40:19;;;;;;;0.63;0.20;;;;;;;;;;5055776;28;20027;-65
2022/02/07 14:42:45;;;;;;;0.45;0.25;;;;;;;;;;5055592;28;20494;-66
2022/02/07 14:45:25;;;;;;;1.25;0.40;;;;;;;;;;5055866;28;20420;-65
2022/02/07 14:47:52;;;;;;;1.85;0.38;;;;;;;;;;5055815;28;20079;-67
2022/02/07 14:50:19;;;;;;;0.57;0.30;;;;;;;;;;5055596;28;20071;-65
2022/02/07 14:52:45;;;;;;;0.90;0.40;;;;;;;;;;5055491;28;20040;-65
2022/02/07 14:55:12;;;;;;;0.80;0.40;;;;;;;;;;5054689;28;20021;-65
2022/02/07 14:57:38;;;;;;;0.68;0.30;;;;;;;;;;5054386;28;20025;-65
2022/02/07 15:00:06;;;;;;;8.05;0.45;;;;;;;;;;5053530;28;20024;-65
2022/02/07 15:02:32;;;;;;;1.98;0.35;;;;;;;;;;5054055;28;20142;-65
2022/02/07 15:05:00;;;;;;;2.28;0.50;;;;;;;;;;5054477;28;20025;-65
2022/02/07 15:07:30;;;;;;;1.20;0.45;;;;;;;;;;5054419;28;20045;-65
2022/02/07 15:09:56;;;;;;;2.95;0.30;;;;;;;;;;5053946;28;20041;-67
2022/02/07 15:12:22;;;;;;;1.20;0.28;;;;;;;;;;5054550;28;20385;-66
2022/02/07 15:14:51;;;;;;;2.35;0.30;;;;;;;;;;5054798;28;20029;-65
2022/02/07 15:17:18;;;;;;;3.20;0.40;;;;;;;;;;5055235;28;20030;-65
2022/02/07 15:19:45;;;;;;;0.55;0.20;;;;;;;;;;5055010;28;20046;-65
2022/02/07 15:22:11;;;;;;;4.80;0.40;;;;;;;;;;5055285;28;20025;-65
2022/02/07 15:24:37;;;;;;;2.13;0.50;;;;;;;;;;5054675;28;20061;-65
2022/02/07 15:27:04;;;;;;;0.40;0.30;;;;;;;;;;5054665;28;20029;-65
2022/02/07 15:29:30;;;;;;;3.60;0.43;;;;;;;;;;5053509;28;20143;-65
2022/02/07 15:32:20;;;;;;;0.63;0.30;;;;;;;;;;5054818;28;20036;-66
2022/02/07 15:34:46;;;;;;;1.75;0.30;;;;;;;;;;5054743;28;20029;-66
2022/02/07 15:37:12;;;;;;;4.72;0.40;;;;;;;;;;5054798;28;20028;-65
2022/02/07 15:39:38;;;;;;;1.52;0.55;;;;;;;;;;5054278;28;20064;-65
2022/02/07 15:42:04;;;;;;;0.73;0.50;;;;;;;;;;5054351;28;20078;-65
2022/02/07 15:44:30;;;;;;;4.30;1.10;;;;;;;;;;5054111;28;20487;-65
2022/02/07 15:46:58;;;;;;;3.70;1.80;;;;;;;;;;5054541;28;20436;-67
2022/02/07 15:49:24;;;;;;;2.58;0.82;;;;;;;;;;5053667;28;20017;-65
2022/02/07 15:51:52;;;;;;;7.57;0.95;;;;;;;;;;5042602;28;20040;-65
2022/02/07 15:54:18;;;;;;;0.60;0.40;;;;;;;;;;5033877;28;20018;-66
2022/02/07 15:56:44;;;;;;;0.93;0.60;;;;;;;;;;5034731;28;20462;-66
2022/02/07 15:59:10;;;;;;;1.27;0.60;;;;;;;;;;5033878;28;20052;-65
2022/02/07 16:01:36;;;;;;;2.53;0.57;;;;;;;;;;5033704;28;20034;-66
2022/02/07 16:04:02;;;;;;;1.38;0.40;;;;;;;;;;5032871;28;20393;-65
2022/02/07 16:06:28;;;;;;;0.52;0.30;;;;;;;;;;5033798;28;20057;-65
2022/02/07 16:08:54;;;;;;;0.77;0.47;;;;;;;;;;5038867;28;20049;-64
2022/02/07 16:11:21;;;;;;;6.72;0.73;;;;;;;;;;5052517;28;20020;-65
2022/02/07 16:13:52;;;;;;;5.13;0.50;;;;;;;;;;5054117;28;20033;-64
2022/02/07 16:16:19;;;;;;;2.22;0.85;;;;;;;;;;5054000;28;20389;-64
2022/02/07 16:18:46;;;;;;;0.82;0.40;;;;;;;;;;5054099;28;20024;-64
2022/02/07 16:21:13;;;;;;;0.60;0.38;;;;;;;;;;5054518;28;20036;-63
2022/02/07 16:23:40;;;;;;;0.57;0.40;;;;;;;;;;5054224;28;20029;-64
2022/02/07 16:26:08;;;;;;;2.83;0.65;;;;;;;;;;5054071;28;20028;-64
2022/02/07 16:28:34;;;;;;;3.20;0.35;;;;;;;;;;5053951;28;20024;-65
2022/02/07 16:31:00;;;;;;;0.65;0.32;;;;;;;;;;5053745;28;20025;-64
2022/02/07 16:33:27;;;;;;;4.45;0.45;;;;;;;;;;5053664;28;20107;-64
2022/02/07 16:35:53;;;;;;;1.48;0.43;;;;;;;;;;5053528;28;20021;-64
2022/02/07 16:38:19;;;;;;;0.95;0.50;;;;;;;;;;5053764;28;20059;-64
2022/02/07 16:40:46;;;;;;;2.08;0.40;;;;;;;;;;5053630;28;20059;-64
2022/02/07 16:43:13;;;;;;;0.98;0.47;;;;;;;;;;5053938;28;20489;-64
2022/02/07 16:48:12;;;;;;;0.98;0.60;;;;;;;;;;5054352;28;20039;-64
2022/02/07 16:50:38;;;;;;;3.60;0.80;;;;;;;;;;5053678;28;20025;-65
2022/02/07 16:53:04;;;;;;;1.93;0.57;;;;;;;;;;5053820;28;20079;-64
2022/02/07 16:55:30;;;;;;;0.97;0.50;;;;;;;;;;5053865;28;20025;-64
2022/02/07 16:57:56;;;;;;;3.50;0.53;;;;;;;;;;5053615;28;20029;-64
2022/02/07 17:00:23;;;;;;;2.17;0.40;;;;;;;;;;5053490;28;20028;-64
2022/02/07 17:02:49;;;;;;;2.37;0.60;;;;;;;;;;5053727;28;20033;-64
2022/02/07 17:05:16;;;;;;;3.30;0.50;;;;;;;;;;5053700;28;20029;-64
2022/02/07 17:07:46;;;;;;;2.53;0.70;;;;;;;;;;5053192;28;20036;-65
2022/02/07 17:10:12;;;;;;;2.13;0.60;;;;;;;;;;5052116;28;20489;-65